createdAt,value
2023-05-18T00:00:27.110Z,101228.31
2023-05-18T00:03:15.965Z,101228.69
2023-05-18T00:06:07.109Z,101229.59
2023-05-18T00:08:57.174Z,101226.34
2023-05-18T00:11:45.844Z,101233.06
2023-05-18T00:14:34.624Z,101240.41
2023-05-18T00:17:23.552Z,101243.03
2023-05-18T00:20:12.930Z,101246.94
2023-05-18T00:23:02.414Z,101251.13
2023-05-18T00:25:52.489Z,101256.09
2023-05-18T00:28:41.150Z,101253.41
2023-05-18T00:31:29.895Z,101253.63
2023-05-18T00:34:18.615Z,101254.41
2023-05-18T00:37:07.239Z,101255.16
2023-05-18T00:39:55.922Z,101258.09
2023-05-18T00:42:45.991Z,101258.38
2023-05-18T00:45:34.926Z,101264.09
2023-05-18T00:48:23.581Z,101264.75
2023-05-18T00:51:13.008Z,101268.94
2023-05-18T00:54:03.714Z,101270.72
2023-05-18T00:56:52.962Z,101269.81
2023-05-18T00:59:43.306Z,101269.63
2023-05-18T01:02:32.094Z,101270.81
2023-05-18T01:05:22.268Z,101278.81
2023-05-18T01:08:11.138Z,101276.50
2023-05-18T01:11:20.920Z,101277.16
2023-05-18T01:14:17.070Z,101283.81
2023-05-18T01:17:18.424Z,101285.41
2023-05-18T01:20:34.010Z,101287.44
2023-05-18T01:23:46.875Z,101281.84
2023-05-18T01:26:40.368Z,101277.66
2023-05-18T01:29:31.446Z,101287.19
2023-05-18T01:32:20.970Z,101291.81
2023-05-18T01:35:10.598Z,101293.47
2023-05-18T01:37:59.297Z,101294.31
2023-05-18T01:40:56.620Z,101295.00
2023-05-18T01:43:53.803Z,101296.47
2023-05-18T01:46:50.988Z,101291.75
2023-05-18T01:49:44.708Z,101294.78
2023-05-18T01:52:38.505Z,101295.13
2023-05-18T01:55:31.583Z,101292.97
2023-05-18T01:58:21.882Z,101288.84
2023-05-18T02:01:12.317Z,101296.16
2023-05-18T02:04:01.171Z,101293.69
2023-05-18T02:06:49.920Z,101289.88
2023-05-18T02:09:41.469Z,101295.34
2023-05-18T02:12:31.519Z,101292.81
2023-05-18T02:15:20.333Z,101287.19
2023-05-18T02:18:10.434Z,101296.16
2023-05-18T02:21:00.493Z,101299.81
2023-05-18T02:23:49.222Z,101296.88
2023-05-18T02:26:38.259Z,101293.47
2023-05-18T02:29:27.002Z,101297.16
2023-05-18T02:32:16.932Z,101299.81
2023-05-18T02:35:08.373Z,101307.03
2023-05-18T02:37:58.268Z,101298.00
2023-05-18T02:40:46.936Z,101305.16
2023-05-18T02:43:35.960Z,101304.50
2023-05-18T02:46:24.795Z,101312.81
2023-05-18T02:49:13.776Z,101303.78
2023-05-18T02:52:03.806Z,101312.81
2023-05-18T02:54:54.758Z,101313.53
2023-05-18T02:57:46.951Z,101315.41
2023-05-18T03:00:35.836Z,101322.03
2023-05-18T03:03:25.934Z,101313.91
2023-05-18T03:06:16.061Z,101322.94
2023-05-18T03:09:06.204Z,101328.41
2023-05-18T03:11:54.907Z,101326.88
2023-05-18T03:14:43.659Z,101324.56
2023-05-18T03:17:32.418Z,101324.25
2023-05-18T03:20:21.855Z,101320.59
2023-05-18T03:23:10.637Z,101337.59
2023-05-18T03:26:02.667Z,101326.25
2023-05-18T03:28:51.454Z,101332.09
2023-05-18T03:31:40.192Z,101332.94
2023-05-18T03:34:28.893Z,101332.59
2023-05-18T03:37:17.595Z,101343.25
2023-05-18T03:40:12.006Z,101340.88
2023-05-18T03:43:04.183Z,101347.44
2023-05-18T03:45:52.978Z,101343.63
2023-05-18T03:48:42.699Z,101349.66
2023-05-18T03:51:31.380Z,101347.50
2023-05-18T03:54:20.051Z,101349.66
2023-05-18T03:57:08.757Z,101349.28
2023-05-18T03:59:58.880Z,101355.25
2023-05-18T04:02:47.636Z,101353.75
2023-05-18T04:05:36.385Z,101356.25
2023-05-18T04:08:26.169Z,101354.88
2023-05-18T04:11:14.983Z,101363.63
2023-05-18T04:14:03.715Z,101360.22
2023-05-18T04:16:53.861Z,101363.91
2023-05-18T04:19:42.541Z,101377.91
2023-05-18T04:22:31.366Z,101378.94
2023-05-18T04:25:20.305Z,101377.28
2023-05-18T04:28:09.891Z,101371.94
2023-05-18T04:30:58.940Z,101378.94
2023-05-18T04:33:51.307Z,101381.47
2023-05-18T04:36:42.605Z,101375.66
2023-05-18T04:39:31.258Z,101378.34
2023-05-18T04:42:20.122Z,101370.31
2023-05-18T04:45:12.916Z,101380.00
2023-05-18T04:48:02.035Z,101374.13
2023-05-18T04:50:54.316Z,101372.28
2023-05-18T04:53:42.975Z,101386.34
2023-05-18T04:56:31.641Z,101387.00
2023-05-18T04:59:20.850Z,101382.31
2023-05-18T05:02:09.546Z,101394.13
2023-05-18T05:04:58.214Z,101382.78
2023-05-18T05:07:48.214Z,101390.16
2023-05-18T05:10:36.901Z,101385.63
2023-05-18T05:13:25.670Z,101396.81
2023-05-18T05:16:14.351Z,101395.00
2023-05-18T05:19:03.122Z,101390.84
2023-05-18T05:21:51.788Z,101392.13
2023-05-18T05:24:41.819Z,101399.13
2023-05-18T05:27:31.162Z,101398.91
2023-05-18T05:30:21.041Z,101392.59
2023-05-18T05:33:09.819Z,101390.47
2023-05-18T05:35:58.557Z,101397.59
2023-05-18T05:38:47.325Z,101390.59
2023-05-18T05:41:37.431Z,101397.84
2023-05-18T05:44:26.129Z,101393.69
2023-05-18T05:47:15.165Z,101399.25
2023-05-18T05:50:03.941Z,101397.81
2023-05-18T05:52:52.691Z,101391.13
2023-05-18T05:55:42.184Z,101397.81
2023-05-18T05:58:32.202Z,101394.44
2023-05-18T06:01:22.785Z,101396.22
2023-05-18T06:04:12.693Z,101404.25
2023-05-18T06:07:01.731Z,101399.56
2023-05-18T06:09:50.468Z,101402.44
2023-05-18T06:12:39.140Z,101408.00
2023-05-18T06:15:29.296Z,101402.66
2023-05-18T06:18:18.821Z,101400.44
2023-05-18T06:21:07.887Z,101405.41
2023-05-18T06:23:56.693Z,101409.31
2023-05-18T06:26:45.371Z,101414.31
2023-05-18T06:29:34.002Z,101415.16
2023-05-18T06:32:24.524Z,101405.28
2023-05-18T06:35:13.908Z,101411.97
2023-05-18T06:38:02.993Z,101415.00
2023-05-18T06:40:51.633Z,101421.31
2023-05-18T06:43:40.217Z,101414.28
2023-05-18T06:46:28.960Z,101421.66
2023-05-18T06:49:19.139Z,101434.66
2023-05-18T06:52:09.917Z,101437.34
2023-05-18T06:55:01.361Z,101433.66
2023-05-18T06:57:50.027Z,101433.63
2023-05-18T07:00:39.832Z,101435.47
2023-05-18T07:03:29.858Z,101428.47
2023-05-18T07:06:19.960Z,101432.97
2023-05-18T07:09:09.169Z,101426.97
2023-05-18T07:11:57.772Z,101424.44
2023-05-18T07:14:46.723Z,101436.13
2023-05-18T07:17:35.597Z,101429.91
2023-05-18T07:20:26.395Z,101426.38
2023-05-18T07:23:16.852Z,101426.00
2023-05-18T07:26:08.127Z,101427.22
2023-05-18T07:28:56.830Z,101426.50
2023-05-18T07:31:45.993Z,101419.22
2023-05-18T07:34:34.764Z,101424.34
2023-05-18T07:37:23.505Z,101418.66
2023-05-18T07:40:14.756Z,101420.53
2023-05-18T07:43:03.394Z,101413.53
2023-05-18T07:45:52.104Z,101409.56
2023-05-18T07:48:41.281Z,101419.91
2023-05-18T07:51:30.693Z,101414.53
2023-05-18T07:54:19.361Z,101416.84
2023-05-18T07:57:14.189Z,101416.81
2023-05-18T08:00:04.851Z,101413.13
2023-05-18T08:02:54.144Z,101421.38
2023-05-18T08:05:43.625Z,101422.66
2023-05-18T08:08:32.330Z,101416.28
2023-05-18T08:11:21.935Z,101421.16
2023-05-18T08:14:11.930Z,101421.34
2023-05-18T08:17:00.949Z,101426.34
2023-05-18T08:19:49.987Z,101416.56
2023-05-18T08:22:38.707Z,101412.19
2023-05-18T08:25:27.472Z,101404.84
2023-05-18T08:28:16.210Z,101414.53
2023-05-18T08:31:07.220Z,101412.22
2023-05-18T08:33:55.897Z,101409.41
2023-05-18T08:36:45.931Z,101407.25
2023-05-18T08:39:34.675Z,101408.50
2023-05-18T08:42:27.685Z,101406.13
2023-05-18T08:45:31.861Z,101396.44
2023-05-18T08:48:27.132Z,101406.34
2023-05-18T08:51:20.840Z,101414.44
2023-05-18T08:54:11.537Z,101406.00
2023-05-18T08:57:00.504Z,101411.47
2023-05-18T08:59:50.932Z,101407.53
2023-05-18T09:02:40.112Z,101402.13
2023-05-18T09:05:30.425Z,101393.28
2023-05-18T09:08:20.446Z,101396.84
2023-05-18T09:11:10.312Z,101395.44
2023-05-18T09:14:03.282Z,101395.88
2023-05-18T09:16:51.994Z,101393.25
2023-05-18T09:19:40.600Z,101389.19
2023-05-18T09:22:30.995Z,101394.09
2023-05-18T09:25:20.338Z,101388.28
2023-05-18T09:28:08.949Z,101385.44
2023-05-18T09:30:57.671Z,101387.56
2023-05-18T09:33:47.840Z,101387.31
2023-05-18T09:36:36.476Z,101382.56
2023-05-18T09:39:26.495Z,101370.47
2023-05-18T09:42:15.357Z,101372.56
2023-05-18T09:45:04.434Z,101377.25
2023-05-18T09:47:53.480Z,101370.56
2023-05-18T09:50:42.278Z,101370.16
2023-05-18T09:53:30.934Z,101375.03
2023-05-18T09:56:21.586Z,101372.44
2023-05-18T09:59:11.537Z,101380.38
2023-05-18T10:02:02.099Z,101385.34
2023-05-18T10:04:54.362Z,101368.56
2023-05-18T10:07:45.401Z,101374.00
2023-05-18T10:10:34.510Z,101376.25
2023-05-18T10:13:28.196Z,101381.47
2023-05-18T10:16:17.552Z,101376.59
2023-05-18T10:19:08.047Z,101375.19
2023-05-18T10:21:57.217Z,101373.31
2023-05-18T10:24:50.895Z,101356.78
2023-05-18T10:27:40.532Z,101360.28
2023-05-18T10:30:31.640Z,101353.97
2023-05-18T10:33:28.981Z,101348.41
2023-05-18T10:36:19.482Z,101349.28
2023-05-18T10:39:09.037Z,101346.25
2023-05-18T10:42:00.002Z,101342.59
2023-05-18T10:44:52.060Z,101347.50
2023-05-18T10:47:45.040Z,101341.88
2023-05-18T10:50:34.054Z,101341.03
2023-05-18T10:53:25.872Z,101340.97
2023-05-18T10:56:14.672Z,101339.53
2023-05-18T10:59:03.620Z,101339.78
2023-05-18T11:01:55.585Z,101343.78
2023-05-18T11:04:48.535Z,101344.03
2023-05-18T11:07:37.332Z,101343.50
2023-05-18T11:10:34.477Z,101337.50
2023-05-18T11:13:30.595Z,101335.00
2023-05-18T11:16:23.091Z,101330.19
2023-05-18T11:19:12.316Z,101334.22
2023-05-18T11:22:13.815Z,101325.16
2023-05-18T11:25:05.558Z,101320.13
2023-05-18T11:27:55.615Z,101320.22
2023-05-18T11:30:49.991Z,101318.72
2023-05-18T11:33:43.082Z,101323.34
2023-05-18T11:36:33.172Z,101309.16
2023-05-18T11:39:26.588Z,101315.59
2023-05-18T11:42:17.227Z,101320.38
2023-05-18T11:45:09.080Z,101318.97
2023-05-18T11:47:59.160Z,101318.91
2023-05-18T11:50:48.137Z,101315.97
2023-05-18T11:53:36.900Z,101302.09
2023-05-18T11:56:30.156Z,101302.16
2023-05-18T11:59:31.486Z,101309.03
2023-05-18T12:02:22.065Z,101314.03
2023-05-18T12:05:11.428Z,101304.91
2023-05-18T12:08:01.318Z,101303.28
2023-05-18T12:10:50.859Z,101308.22
2023-05-18T12:13:42.795Z,101307.50
2023-05-18T12:16:33.431Z,101296.56
2023-05-18T12:19:23.800Z,101296.03
2023-05-18T12:22:13.388Z,101294.19
2023-05-18T12:25:02.082Z,101292.22
2023-05-18T12:27:54.975Z,101304.34
2023-05-18T12:30:45.156Z,101293.34
2023-05-18T12:33:36.046Z,101302.16
2023-05-18T12:36:25.778Z,101295.69
2023-05-18T12:39:17.094Z,101292.28
2023-05-18T12:42:14.936Z,101288.75
2023-05-18T12:45:06.378Z,101296.25
2023-05-18T12:47:57.624Z,101295.56
2023-05-18T12:50:51.956Z,101295.84
2023-05-18T12:53:44.973Z,101275.69
2023-05-18T12:57:01.435Z,101296.03
2023-05-18T12:59:51.435Z,101286.16
2023-05-18T13:02:40.744Z,101285.13
2023-05-18T13:05:31.036Z,101277.44
2023-05-18T13:08:23.041Z,101284.03
2023-05-18T13:11:14.756Z,101276.19
2023-05-18T13:14:05.289Z,101286.81
2023-05-18T13:16:54.078Z,101287.34
2023-05-18T13:19:42.789Z,101285.16
2023-05-18T13:22:33.047Z,101281.53
2023-05-18T13:25:21.954Z,101276.91
2023-05-18T13:28:12.059Z,101278.03
2023-05-18T13:31:00.836Z,101275.03
2023-05-18T13:33:50.114Z,101285.44
2023-05-18T13:36:38.786Z,101281.66
2023-05-18T13:39:29.134Z,101283.72
2023-05-18T13:42:21.149Z,101282.94
2023-05-18T13:45:12.707Z,101277.03
2023-05-18T13:48:09.288Z,101278.44
2023-05-18T13:50:59.046Z,101274.19
2023-05-18T13:53:47.778Z,101272.38
2023-05-18T13:56:37.842Z,101279.25
2023-05-18T13:59:27.635Z,101273.56
2023-05-18T14:02:16.699Z,101270.38
2023-05-18T14:05:08.515Z,101264.94
2023-05-18T14:07:57.310Z,101270.50
2023-05-18T14:10:46.145Z,101271.38
2023-05-18T14:13:36.205Z,101265.03
2023-05-18T14:16:25.576Z,101257.28
2023-05-18T14:19:14.341Z,101266.88
2023-05-18T14:22:03.012Z,101262.03
2023-05-18T14:24:51.698Z,101264.69
2023-05-18T14:27:40.446Z,101261.72
2023-05-18T14:30:31.116Z,101251.13
2023-05-18T14:33:19.913Z,101254.50
2023-05-18T14:36:08.757Z,101268.28
2023-05-18T14:38:57.644Z,101264.06
2023-05-18T14:41:46.413Z,101258.69
2023-05-18T14:44:35.201Z,101262.69
2023-05-18T14:47:26.130Z,101244.28
2023-05-18T14:50:14.945Z,101253.34
2023-05-18T14:53:03.646Z,101245.66
2023-05-18T14:55:52.871Z,101248.34
2023-05-18T14:58:41.718Z,101244.34
2023-05-18T15:01:30.524Z,101237.69
2023-05-18T15:04:21.942Z,101238.50
2023-05-18T15:07:10.911Z,101233.19
2023-05-18T15:09:59.700Z,101225.22
2023-05-18T15:12:48.406Z,101221.91
2023-05-18T15:15:37.171Z,101222.47
2023-05-18T15:18:26.224Z,101216.81
2023-05-18T15:21:18.266Z,101225.28
2023-05-18T15:24:07.448Z,101227.38
2023-05-18T15:26:56.188Z,101229.94
2023-05-18T15:29:44.907Z,101225.78
2023-05-18T15:32:33.639Z,101226.34
2023-05-18T15:35:22.865Z,101234.66
2023-05-18T15:38:13.106Z,101224.91
2023-05-18T15:41:01.837Z,101225.22
2023-05-18T15:43:50.570Z,101216.31
2023-05-18T15:46:39.359Z,101222.28
2023-05-18T15:49:28.620Z,101222.88
2023-05-18T15:52:17.228Z,101220.59
2023-05-18T15:55:08.826Z,101217.56
2023-05-18T15:57:57.675Z,101215.41
2023-05-18T16:00:46.326Z,101213.81
2023-05-18T16:03:35.036Z,101217.69
2023-05-18T16:06:23.684Z,101217.63
2023-05-18T16:09:12.417Z,101219.72
2023-05-18T16:12:02.838Z,101215.34
2023-05-18T16:14:51.907Z,101207.19
2023-05-18T16:17:40.675Z,101210.34
2023-05-18T16:20:29.958Z,101206.66
2023-05-18T16:23:19.040Z,101208.69
2023-05-18T16:26:07.683Z,101206.22
2023-05-18T16:28:59.034Z,101202.06
2023-05-18T16:31:47.898Z,101203.81
2023-05-18T16:34:36.609Z,101193.56
2023-05-18T16:37:25.534Z,101205.53
2023-05-18T16:40:14.438Z,101197.09
2023-05-18T16:43:03.087Z,101202.47
2023-05-18T16:45:53.073Z,101192.50
2023-05-18T16:48:41.846Z,101192.66
2023-05-18T16:51:31.720Z,101186.97
2023-05-18T16:54:20.521Z,101193.56
2023-05-18T16:57:13.067Z,101200.13
2023-05-18T17:00:02.000Z,101188.50
2023-05-18T17:02:52.653Z,101200.31
2023-05-18T17:05:41.558Z,101202.78
2023-05-18T17:08:30.371Z,101198.56
2023-05-18T17:11:19.072Z,101206.59
2023-05-18T17:14:08.101Z,101198.72
2023-05-18T17:16:56.944Z,101203.94
2023-05-18T17:19:47.047Z,101207.88
2023-05-18T17:22:35.772Z,101206.59
2023-05-18T17:25:24.659Z,101212.22
2023-05-18T17:28:13.868Z,101209.63
2023-05-18T17:31:02.655Z,101205.91
2023-05-18T17:33:51.452Z,101212.16
2023-05-18T17:36:42.520Z,101208.03
2023-05-18T17:39:31.650Z,101208.28
2023-05-18T17:42:20.431Z,101209.81
2023-05-18T17:45:10.035Z,101210.38
2023-05-18T17:47:59.054Z,101210.97
2023-05-18T17:50:47.863Z,101216.38
2023-05-18T17:53:41.935Z,101216.38
2023-05-18T17:56:31.714Z,101207.72
2023-05-18T17:59:20.535Z,101203.63
2023-05-18T18:02:10.924Z,101206.84
2023-05-18T18:04:59.741Z,101216.38
2023-05-18T18:07:48.409Z,101211.66
2023-05-18T18:10:38.453Z,101216.59
2023-05-18T18:13:27.376Z,101215.94
2023-05-18T18:16:16.740Z,101219.88
2023-05-18T18:19:05.511Z,101213.00
2023-05-18T18:21:55.380Z,101211.75
2023-05-18T18:24:44.087Z,101213.81
2023-05-18T18:27:34.732Z,101215.41
2023-05-18T18:30:23.531Z,101211.88
2023-05-18T18:33:12.459Z,101218.53
2023-05-18T18:36:02.154Z,101218.91
2023-05-18T18:38:51.183Z,101222.59
2023-05-18T18:41:41.280Z,101220.56
2023-05-18T18:44:31.355Z,101223.88
2023-05-18T18:47:20.102Z,101224.19
2023-05-18T18:50:09.567Z,101224.84
2023-05-18T18:52:58.407Z,101228.22
2023-05-18T18:55:47.130Z,101224.34
2023-05-18T18:58:35.945Z,101226.09
2023-05-18T19:01:31.678Z,101226.19
2023-05-18T19:04:21.048Z,101222.69
2023-05-18T19:07:09.859Z,101232.75
2023-05-18T19:09:58.615Z,101238.84
2023-05-18T19:12:48.621Z,101238.47
2023-05-18T19:15:38.556Z,101237.84
2023-05-18T19:18:28.643Z,101238.47
2023-05-18T19:21:17.352Z,101247.34
2023-05-18T19:24:07.290Z,101251.03
2023-05-18T19:26:56.773Z,101252.50
2023-05-18T19:29:45.555Z,101259.31
2023-05-18T19:32:43.197Z,101264.13
2023-05-18T19:35:34.054Z,101256.56
2023-05-18T19:38:23.041Z,101248.91
2023-05-18T19:41:12.686Z,101262.66
2023-05-18T19:44:01.326Z,101268.34
2023-05-18T19:46:50.107Z,101262.47
2023-05-18T19:49:38.810Z,101259.41
2023-05-18T19:52:28.850Z,101265.66
2023-05-18T19:55:20.952Z,101270.75
2023-05-18T19:58:09.781Z,101273.88
2023-05-18T20:00:59.101Z,101266.13
2023-05-18T20:03:49.683Z,101270.84
2023-05-18T20:06:38.505Z,101272.13
2023-05-18T20:09:29.288Z,101269.09
2023-05-18T20:12:18.072Z,101272.41
2023-05-18T20:15:08.748Z,101274.44
2023-05-18T20:17:57.504Z,101279.97
2023-05-18T20:20:46.215Z,101278.22
2023-05-18T20:23:34.970Z,101282.94
2023-05-18T20:26:26.743Z,101281.72
2023-05-18T20:29:16.029Z,101281.63
2023-05-18T20:32:06.969Z,101283.31
2023-05-18T20:34:55.719Z,101283.06
2023-05-18T20:37:45.407Z,101280.50
2023-05-18T20:40:37.842Z,101285.66
2023-05-18T20:43:28.486Z,101282.34
2023-05-18T20:46:17.188Z,101279.44
2023-05-18T20:49:06.015Z,101281.31
2023-05-18T20:51:54.668Z,101289.09
2023-05-18T20:54:43.423Z,101280.75
2023-05-18T20:57:32.248Z,101289.69
2023-05-18T21:00:22.267Z,101286.00
2023-05-18T21:03:11.055Z,101285.88
2023-05-18T21:05:59.849Z,101283.22
2023-05-18T21:08:48.431Z,101276.75
2023-05-18T21:11:37.128Z,101284.91
2023-05-18T21:14:25.979Z,101286.78
2023-05-18T21:17:16.262Z,101283.63
2023-05-18T21:20:05.655Z,101284.28
2023-05-18T21:22:54.383Z,101276.34
2023-05-18T21:25:44.707Z,101276.34
2023-05-18T21:28:33.360Z,101276.50
2023-05-18T21:31:22.236Z,101271.66
2023-05-18T21:34:12.417Z,101275.66
2023-05-18T21:37:03.537Z,101268.66
2023-05-18T21:39:52.308Z,101267.66
2023-05-18T21:42:45.248Z,101277.69
2023-05-18T21:45:35.497Z,101283.03
2023-05-18T21:48:26.350Z,101274.38
2023-05-18T21:51:16.619Z,101273.06
2023-05-18T21:54:05.537Z,101272.72
2023-05-18T21:56:54.532Z,101278.41
2023-05-18T21:59:43.262Z,101272.75
2023-05-18T22:02:32.000Z,101276.38
2023-05-18T22:05:21.074Z,101276.03
2023-05-18T22:08:11.340Z,101279.59
2023-05-18T22:11:00.001Z,101276.06
2023-05-18T22:13:48.888Z,101266.75
2023-05-18T22:16:37.622Z,101270.09
2023-05-18T22:19:26.351Z,101264.09
2023-05-18T22:22:29.101Z,101266.28
2023-05-18T22:25:20.105Z,101266.75
2023-05-18T22:28:08.808Z,101267.59
2023-05-18T22:30:57.443Z,101261.31
2023-05-18T22:33:46.163Z,101268.31
2023-05-18T22:36:35.334Z,101266.31
2023-05-18T22:39:24.073Z,101257.47
2023-05-18T22:42:14.188Z,101262.66
2023-05-18T22:45:03.658Z,101259.47
2023-05-18T22:47:52.799Z,101257.09
2023-05-18T22:50:42.267Z,101253.78
2023-05-18T22:53:31.002Z,101253.13
2023-05-18T22:56:21.011Z,101255.44
2023-05-18T22:59:11.875Z,101256.81
2023-05-18T23:02:00.843Z,101250.09
2023-05-18T23:04:49.607Z,101249.66
2023-05-18T23:07:38.502Z,101257.66
2023-05-18T23:10:27.292Z,101253.41
2023-05-18T23:13:16.937Z,101250.09
2023-05-18T23:16:10.431Z,101251.13
2023-05-18T23:19:01.734Z,101250.34
2023-05-18T23:21:50.560Z,101254.84
2023-05-18T23:24:39.227Z,101254.50
2023-05-18T23:27:27.891Z,101252.13
2023-05-18T23:30:16.670Z,101257.69
2023-05-18T23:33:07.662Z,101254.38
2023-05-18T23:36:02.403Z,101251.19
2023-05-18T23:38:53.099Z,101256.84
2023-05-18T23:41:42.676Z,101254.72
2023-05-18T23:44:31.884Z,101256.19
2023-05-18T23:47:22.029Z,101248.19
2023-05-18T23:50:13.420Z,101253.91
2023-05-18T23:53:04.779Z,101254.91
2023-05-18T23:55:56.726Z,101252.25
2023-05-18T23:58:47.103Z,101246.41
